createdAt,value
2023-12-11T00:00:02.384Z,87
2023-12-11T00:20:02.845Z,87
2023-12-11T00:40:03.106Z,88
2023-12-11T01:00:02.834Z,88
2023-12-11T01:20:02.622Z,89
2023-12-11T01:40:03.052Z,89
2023-12-11T02:00:02.426Z,90
2023-12-11T02:20:03.178Z,91
2023-12-11T02:40:02.598Z,91
2023-12-11T03:00:02.897Z,91
2023-12-11T03:20:02.611Z,92
2023-12-11T03:40:03.006Z,92
2023-12-11T04:00:02.367Z,92
2023-12-11T04:20:03.581Z,92
2023-12-11T04:40:03.107Z,93
2023-12-11T05:00:02.710Z,92
2023-12-11T05:20:02.454Z,93
2023-12-11T05:40:23.797Z,92
2023-12-11T06:00:03.116Z,92
2023-12-11T06:20:02.591Z,92
2023-12-11T06:40:02.978Z,91
2023-12-11T07:00:02.621Z,91
2023-12-11T07:20:02.683Z,91
2023-12-11T07:40:03.179Z,90
2023-12-11T08:00:02.962Z,90
2023-12-11T08:20:03.088Z,90
2023-12-11T08:40:02.780Z,89
2023-12-11T09:00:04.032Z,88
2023-12-11T09:20:02.922Z,87
2023-12-11T09:40:02.426Z,87
2023-12-11T10:00:06.355Z,87
2023-12-11T10:20:02.652Z,87
2023-12-11T10:40:03.091Z,88
2023-12-11T11:00:02.702Z,88
2023-12-11T11:20:02.926Z,89
2023-12-11T11:40:02.977Z,89
2023-12-11T12:00:03.644Z,89
2023-12-11T12:20:03.110Z,89
2023-12-11T12:40:02.902Z,89
2023-12-11T13:00:02.273Z,90
2023-12-11T13:20:03.521Z,90
2023-12-11T13:40:03.130Z,91
2023-12-11T14:00:02.823Z,90
2023-12-11T14:20:02.522Z,90
2023-12-11T14:40:03.026Z,91
2023-12-11T15:00:04.025Z,91
2023-12-11T15:20:03.082Z,91
2023-12-11T15:40:02.648Z,91
2023-12-11T16:00:03.061Z,91
2023-12-11T16:20:03.019Z,91
2023-12-11T16:40:02.378Z,91
2023-12-11T17:00:02.850Z,92
2023-12-11T17:20:02.647Z,92
2023-12-11T17:40:03.173Z,92
2023-12-11T18:00:02.730Z,92
2023-12-11T18:20:02.461Z,93
2023-12-11T18:40:03.095Z,94
2023-12-11T19:00:02.828Z,94
2023-12-11T19:20:02.694Z,94
2023-12-11T19:40:03.227Z,94
2023-12-11T20:00:02.739Z,94
2023-12-11T20:20:02.630Z,94
2023-12-11T20:40:03.076Z,94
2023-12-11T21:00:03.218Z,94
2023-12-11T21:20:03.175Z,93
2023-12-11T21:40:02.530Z,93
2023-12-11T22:00:03.053Z,93
2023-12-11T22:20:02.825Z,93
2023-12-11T22:40:03.429Z,92
2023-12-11T23:00:03.373Z,91
2023-12-11T23:20:03.062Z,91
2023-12-11T23:40:02.559Z,91
